Time;durP1;ratioP1;P1;durP2;ratioP2;P2;SDS_P1;SDS_P2;PMS_P1;PMS_P2;Temp;Humidity;BMP_temperature;BMP_pressure;BME280_temperature;BME280_humidity;BME280_pressure;Samples;Min_cycle;Max_cycle;Signal;HPM_P1;HPM_P2
2023/06/29 00:02:25;;;;;;;9.20;6.90;;;;;;;13.95;88.00;95366.47;5134793;27;20031;-78
2023/06/29 00:04:53;;;;;;;9.98;6.47;;;;;;;14.09;87.95;95369.97;5127658;27;20059;-78
2023/06/29 00:07:19;;;;;;;7.47;6.18;;;;;;;14.20;87.26;95386.59;5115810;27;20496;-79
2023/06/29 00:09:45;;;;;;;9.30;6.75;;;;;;;14.11;88.25;95383.78;5115797;27;20133;-78
2023/06/29 00:12:10;;;;;;;11.13;6.15;;;;;;;14.12;88.49;95388.03;5134348;27;20030;-79
2023/06/29 00:14:36;;;;;;;10.20;7.20;;;;;;;13.98;88.66;95381.88;5152913;27;20066;-79
2023/06/29 00:17:01;;;;;;;11.23;7.95;;;;;;;13.75;89.76;95356.88;5136306;27;20037;-79
2023/06/29 00:19:27;;;;;;;10.43;8.27;;;;;;;13.85;90.39;95354.06;5154950;27;20030;-79
2023/06/29 00:21:52;;;;;;;11.30;8.80;;;;;;;13.80;90.78;95354.16;5118443;27;20035;-79
2023/06/29 00:24:18;;;;;;;15.77;8.73;;;;;;;13.41;92.59;95274.50;5135918;27;20034;-78
2023/06/29 00:26:43;;;;;;;10.27;8.40;;;;;;;14.16;91.34;95356.25;5135682;27;20121;-79
2023/06/29 00:29:08;;;;;;;12.02;9.52;;;;;;;14.02;89.99;95344.75;5154810;27;20031;-79
2023/06/29 00:31:34;;;;;;;12.93;9.38;;;;;;;14.33;90.90;95369.06;5135887;27;20031;-78
2023/06/29 00:33:59;;;;;;;12.80;9.27;;;;;;;14.41;90.42;95347.88;5127802;27;20026;-79
2023/06/29 00:36:25;;;;;;;11.13;9.00;;;;;;;14.40;89.42;95356.97;5151755;27;20408;-78
2023/06/29 00:38:50;;;;;;;11.30;9.07;;;;;;;14.26;88.88;95342.78;5134434;27;20428;-79
2023/06/29 00:41:16;;;;;;;10.85;8.55;;;;;;;14.03;89.37;95285.81;5132824;27;20059;-79
2023/06/29 00:43:43;;;;;;;12.23;9.40;;;;;;;14.44;88.48;95331.28;5134427;27;20544;-79
2023/06/29 00:46:08;;;;;;;13.20;8.32;;;;;;;14.55;87.51;95345.25;5132046;27;20027;-79
2023/06/29 00:48:38;;;;;;;13.65;8.60;;;;;;;14.35;87.29;95354.34;5126691;27;20100;-78
2023/06/29 00:51:04;;;;;;;14.10;8.95;;;;;;;14.43;88.40;95359.03;5141798;27;20095;-78
2023/06/29 00:53:30;;;;;;;11.52;8.40;;;;;;;14.32;88.13;95330.94;5153556;27;20041;-79
2023/06/29 00:55:58;;;;;;;15.88;9.88;;;;;;;14.46;88.37;95337.13;5135190;27;20125;-79
2023/06/29 00:58:25;;;;;;;10.85;8.38;;;;;;;14.54;87.16;95339.13;5118893;27;20039;-79
2023/06/29 01:00:50;;;;;;;9.85;7.95;;;;;;;14.41;87.59;95341.75;5131552;27;20084;-79
2023/06/29 01:03:16;;;;;;;11.13;8.63;;;;;;;14.79;87.82;95366.44;5132970;27;20039;-79
2023/06/29 01:05:45;;;;;;;12.43;9.00;;;;;;;14.24;86.96;95318.25;5132784;27;20067;-79
2023/06/29 01:08:19;;;;;;;11.82;8.68;;;;;;;14.62;86.82;95359.00;5131456;27;20027;-78
2023/06/29 01:10:47;;;;;;;14.65;8.20;;;;;;;14.28;86.76;95319.25;5131855;27;20023;-79
2023/06/29 01:13:16;;;;;;;17.33;9.25;;;;;;;14.73;87.57;95360.38;5129867;27;20531;-79
2023/06/29 01:15:42;;;;;;;14.75;9.40;;;;;;;14.68;88.03;95365.81;5131352;27;20087;-78
2023/06/29 01:18:11;;;;;;;12.25;8.73;;;;;;;14.53;86.77;95379.44;5135197;27;20539;-79
2023/06/29 01:20:37;;;;;;;10.43;8.70;;;;;;;14.38;87.03;95360.97;5153801;27;20039;-79
2023/06/29 01:23:12;;;;;;;16.13;8.43;;;;;;;14.39;89.14;95363.38;5135554;27;20027;-79
2023/06/29 01:25:38;;;;;;;12.20;8.35;;;;;;;14.67;88.79;95378.38;5153066;27;20571;-79
2023/06/29 01:28:13;;;;;;;15.88;9.82;;;;;;;15.00;88.74;95384.47;5134435;27;20038;-78
2023/06/29 01:30:49;;;;;;;10.85;8.75;;;;;;;14.56;86.55;95344.94;5134818;27;20094;-79
2023/06/29 01:33:19;;;;;;;12.55;9.45;;;;;;;14.48;87.01;95361.63;5153345;27;20030;-80
2023/06/29 01:35:45;;;;;;;15.43;9.50;;;;;;;14.36;86.80;95360.47;5148379;27;20050;-80
2023/06/29 01:38:17;;;;;;;12.95;9.25;;;;;;;14.32;87.13;95343.47;5115707;27;20116;-80
2023/06/29 01:40:47;;;;;;;12.95;9.45;;;;;;;14.45;86.14;95370.22;5144829;27;20038;-80
2023/06/29 01:43:13;;;;;;;14.80;9.30;;;;;;;14.45;85.96;95378.22;5128417;27;20023;-80
2023/06/29 01:45:40;;;;;;;14.13;9.98;;;;;;;14.07;87.19;95374.00;5136892;27;20532;-77
2023/06/29 01:48:06;;;;;;;16.55;10.52;;;;;;;13.81;87.63;95347.72;5134418;27;20035;-78
2023/06/29 01:50:32;;;;;;;15.27;9.32;;;;;;;13.98;86.69;95378.41;5134489;27;20026;-78
2023/06/29 01:52:58;;;;;;;12.35;9.77;;;;;;;13.77;87.75;95353.94;5134200;27;20031;-77
2023/06/29 01:55:24;;;;;;;12.18;9.27;;;;;;;14.08;88.45;95379.06;5133591;27;20126;-77
2023/06/29 01:57:49;;;;;;;15.05;10.75;;;;;;;13.58;87.56;95291.84;5152602;27;20400;-77
2023/06/29 02:00:15;;;;;;;19.95;11.75;;;;;;;14.24;88.41;95351.06;5133970;27;20038;-78
2023/06/29 02:02:41;;;;;;;17.13;11.40;;;;;;;14.09;87.61;95332.63;5134064;27;20031;-78
2023/06/29 02:05:07;;;;;;;19.15;11.20;;;;;;;14.20;86.40;95368.72;5133831;27;20575;-78
2023/06/29 02:07:33;;;;;;;13.90;10.68;;;;;;;14.13;86.49;95368.31;5152672;27;20672;-78
2023/06/29 02:09:59;;;;;;;15.02;11.05;;;;;;;14.06;87.18;95345.75;5134147;27;20037;-78
2023/06/29 02:12:24;;;;;;;15.48;11.68;;;;;;;14.40;85.78;95388.19;5134022;27;20053;-78
2023/06/29 02:14:50;;;;;;;14.70;10.73;;;;;;;14.03;87.07;95373.81;5152730;27;20050;-78
2023/06/29 02:17:16;;;;;;;15.43;9.60;;;;;;;13.62;86.52;95344.28;5152732;27;20033;-77
2023/06/29 02:19:41;;;;;;;14.00;10.63;;;;;;;13.28;88.71;95357.78;5152465;27;20046;-78
2023/06/29 02:22:07;;;;;;;15.63;10.65;;;;;;;13.21;89.00;95365.31;5134288;27;20105;-78
2023/06/29 02:24:32;;;;;;;20.35;11.52;;;;;;;13.12;89.04;95317.19;5135571;27;20894;-78
2023/06/29 02:26:57;;;;;;;17.27;10.98;;;;;;;13.66;89.89;95376.47;5134511;27;20082;-78
2023/06/29 02:29:23;;;;;;;15.32;11.63;;;;;;;13.60;88.26;95353.63;5134048;27;20026;-78
2023/06/29 02:31:49;;;;;;;17.58;11.30;;;;;;;13.75;87.55;95375.53;5133634;27;20027;-78
2023/06/29 02:34:14;;;;;;;14.55;10.50;;;;;;;13.57;87.15;95359.56;5133435;27;20511;-78
2023/06/29 02:36:40;;;;;;;18.33;12.23;;;;;;;12.87;88.78;95279.47;5151700;27;20049;-78
2023/06/29 02:39:07;;;;;;;16.40;12.57;;;;;;;13.15;88.86;95331.84;5133546;27;20041;-78
2023/06/29 02:41:32;;;;;;;16.92;11.80;;;;;;;13.18;88.80;95302.00;5133295;27;20512;-78
2023/06/29 02:43:58;;;;;;;19.25;12.50;;;;;;;13.38;88.75;95339.00;5152321;27;20034;-78
2023/06/29 02:46:23;;;;;;;19.13;11.88;;;;;;;13.34;88.19;95329.22;5132945;27;20180;-79
2023/06/29 02:48:49;;;;;;;19.73;12.55;;;;;;;13.51;88.42;95348.16;5152137;27;20177;-78
2023/06/29 02:51:14;;;;;;;17.45;12.07;;;;;;;13.40;87.72;95342.19;5152198;27;20023;-78
2023/06/29 02:53:40;;;;;;;15.57;11.85;;;;;;;13.77;88.04;95365.38;5133218;27;20054;-78
2023/06/29 02:56:05;;;;;;;22.67;11.13;;;;;;;13.74;87.23;95359.81;5151536;27;20581;-78
2023/06/29 02:58:31;;;;;;;15.32;11.55;;;;;;;13.89;85.83;95373.72;5127857;28;20023;-78
2023/06/29 03:00:56;;;;;;;18.20;11.10;;;;;;;13.66;85.25;95352.47;5129397;28;20027;-78
2023/06/29 03:03:21;;;;;;;15.40;10.45;;;;;;;13.59;85.15;95358.16;5131331;28;20031;-78
2023/06/29 03:05:47;;;;;;;16.85;11.35;;;;;;;13.91;85.66;95382.22;5130913;28;20027;-78
2023/06/29 03:08:12;;;;;;;14.27;11.32;;;;;;;13.81;86.20;95370.91;5130756;28;20458;-78
2023/06/29 03:10:38;;;;;;;16.80;11.60;;;;;;;13.57;86.28;95340.91;5131288;28;20039;-78
2023/06/29 03:13:03;;;;;;;17.52;11.45;;;;;;;13.87;87.07;95389.25;5126015;28;20055;-78
2023/06/29 03:15:29;;;;;;;21.08;11.60;;;;;;;13.92;87.02;95377.69;5131465;27;20027;-79
2023/06/29 03:17:54;;;;;;;22.45;11.85;;;;;;;13.84;85.73;95394.34;5129035;28;20037;-78
2023/06/29 03:20:20;;;;;;;19.98;12.23;;;;;;;13.62;86.01;95328.28;5129476;28;20038;-78
2023/06/29 03:22:45;;;;;;;15.75;11.35;;;;;;;13.55;85.45;95353.72;5129418;28;20032;-78
2023/06/29 03:25:11;;;;;;;15.13;11.27;;;;;;;13.18;84.88;95323.28;5130807;27;20027;-78
2023/06/29 03:27:37;;;;;;;16.25;11.20;;;;;;;13.74;85.74;95399.81;5129179;27;20055;-78
2023/06/29 03:30:03;;;;;;;18.25;11.80;;;;;;;13.73;86.48;95399.00;5109023;27;20080;-78
2023/06/29 03:32:28;;;;;;;15.15;11.77;;;;;;;13.56;85.90;95404.06;5111437;28;20023;-78
2023/06/29 03:34:54;;;;;;;15.35;11.75;;;;;;;12.95;85.18;95356.81;5129613;27;20438;-78
2023/06/29 03:37:19;;;;;;;21.45;12.32;;;;;;;13.32;86.91;95406.75;5132276;27;20027;-78
2023/06/29 03:39:44;;;;;;;18.05;11.80;;;;;;;12.60;86.20;95298.66;5115549;27;20023;-78
2023/06/29 03:42:10;;;;;;;25.13;13.32;;;;;;;12.89;88.17;95400.50;5134825;27;20080;-78
2023/06/29 03:44:36;;;;;;;23.85;13.93;;;;;;;13.03;87.70;95403.31;5134465;27;20046;-78
2023/06/29 03:47:02;;;;;;;19.80;14.05;;;;;;;13.13;88.02;95414.66;5134247;27;20038;-78
2023/06/29 03:49:27;;;;;;;21.45;13.68;;;;;;;13.34;86.54;95412.59;5120327;27;20059;-78
2023/06/29 03:51:53;;;;;;;20.85;13.35;;;;;;;13.10;86.52;95390.47;5133438;27;20087;-78
2023/06/29 03:54:18;;;;;;;22.55;14.80;;;;;;;13.36;87.93;95417.59;5133541;27;20035;-78
2023/06/29 03:56:44;;;;;;;20.95;13.82;;;;;;;13.29;86.29;95419.81;5133437;27;20031;-78
2023/06/29 03:59:09;;;;;;;23.15;14.95;;;;;;;13.14;86.37;95386.16;5100625;27;20027;-78
2023/06/29 04:01:35;;;;;;;23.55;15.55;;;;;;;13.46;86.77;95401.50;5115202;27;20031;-79
2023/06/29 04:04:00;;;;;;;24.67;15.20;;;;;;;13.14;86.27;95352.34;5133318;27;20037;-79
2023/06/29 04:06:26;;;;;;;21.48;14.32;;;;;;;13.35;85.67;95374.19;5117074;27;20045;-79
2023/06/29 04:08:52;;;;;;;28.77;15.93;;;;;;;13.27;85.65;95356.22;5113975;27;20563;-79
2023/06/29 04:11:17;;;;;;;21.67;15.65;;;;;;;13.57;85.92;95400.31;5123461;27;20057;-79
2023/06/29 04:13:43;;;;;;;29.33;15.48;;;;;;;13.62;84.28;95416.22;5126825;27;20107;-79
2023/06/29 04:16:08;;;;;;;27.55;15.85;;;;;;;13.53;85.75;95400.06;5095647;27;20409;-79
2023/06/29 04:18:37;;;;;;;21.27;14.20;;;;;;;13.64;84.95;95424.75;5111784;27;20027;-78
2023/06/29 04:21:02;;;;;;;28.50;16.75;;;;;;;13.69;85.33;95411.34;5090596;27;20031;-79
2023/06/29 04:23:28;;;;;;;26.60;14.68;;;;;;;13.85;85.53;95427.91;5105307;27;20450;-79
2023/06/29 04:25:54;;;;;;;25.67;15.75;;;;;;;13.83;85.02;95396.22;5122880;27;20027;-79
2023/06/29 04:28:19;;;;;;;19.98;15.90;;;;;;;13.79;84.49;95407.75;5100091;27;21663;-79
2023/06/29 04:30:45;;;;;;;24.48;15.68;;;;;;;13.59;83.71;95406.13;5112606;27;20588;-80
2023/06/29 04:33:11;;;;;;;22.77;16.13;;;;;;;13.54;84.61;95371.56;5118972;27;20034;-79
2023/06/29 04:35:40;;;;;;;21.65;16.05;;;;;;;13.77;83.54;95393.91;5112340;27;20118;-79
2023/06/29 04:38:13;;;;;;;20.52;15.57;;;;;;;14.10;84.26;95418.78;5116517;27;20034;-79
2023/06/29 04:40:39;;;;;;;21.70;14.90;;;;;;;13.89;83.68;95402.25;5121299;27;20035;-79
2023/06/29 04:43:06;;;;;;;23.52;15.60;;;;;;;14.03;82.69;95407.69;5108710;27;20030;-79
2023/06/29 04:45:35;;;;;;;22.17;16.35;;;;;;;13.21;83.63;95316.59;5108612;27;20035;-79
2023/06/29 04:48:00;;;;;;;26.75;15.75;;;;;;;13.54;83.57;95371.56;5109238;27;20559;-79
2023/06/29 04:50:30;;;;;;;22.10;15.85;;;;;;;13.28;84.13;95351.66;5112603;27;20027;-79
2023/06/29 04:52:58;;;;;;;22.00;16.50;;;;;;;13.42;84.38;95371.19;5099501;27;20118;-79
2023/06/29 04:55:24;;;;;;;24.50;15.32;;;;;;;13.87;84.03;95434.56;5122952;27;20133;-79
2023/06/29 04:57:50;;;;;;;21.88;14.93;;;;;;;13.98;82.91;95429.06;5111712;27;20035;-79
2023/06/29 05:00:16;;;;;;;29.40;17.33;;;;;;;13.90;83.61;95385.19;5127884;27;20030;-79
2023/06/29 05:02:41;;;;;;;22.40;16.33;;;;;;;13.41;nan;95324.31;5127114;27;20028;-79
2023/06/29 05:05:09;;;;;;;23.45;14.63;;;;;;;13.88;81.34;95374.03;5103215;27;20035;-79
2023/06/29 05:07:35;;;;;;;21.48;15.40;;;;;;;14.25;82.08;95440.69;5106909;27;20114;-79
2023/06/29 05:10:01;;;;;;;21.58;15.38;;;;;;;14.05;80.70;95408.97;5109451;27;20027;-79
2023/06/29 05:12:27;;;;;;;19.20;14.25;;;;;;;13.96;82.27;95397.34;5108518;27;20043;-80
2023/06/29 05:14:52;;;;;;;28.83;16.30;;;;;;;13.90;83.10;95382.50;5100027;27;20054;-79
2023/06/29 05:17:18;;;;;;;21.52;15.65;;;;;;;14.04;81.50;95404.69;5109912;27;20027;-79
2023/06/29 05:19:44;;;;;;;20.38;13.98;;;;;;;14.29;81.86;95425.66;5116233;27;20035;-80
2023/06/29 05:22:09;;;;;;;21.65;14.68;;;;;;;14.09;80.10;95415.31;5099299;27;20023;-80
2023/06/29 05:24:37;;;;;;;19.73;14.38;;;;;;;14.51;79.67;95427.75;5101955;27;20199;-80
2023/06/29 05:27:03;;;;;;;21.20;15.07;;;;;;;14.42;80.54;95413.47;5115563;27;20035;-80
2023/06/29 05:29:28;;;;;;;23.50;15.23;;;;;;;14.58;80.05;95419.38;5126990;27;20118;-80
2023/06/29 05:31:54;;;;;;;24.75;13.82;;;;;;;14.57;78.58;95436.50;5112565;27;20027;-79
2023/06/29 05:34:19;;;;;;;19.60;14.05;;;;;;;14.63;77.64;95436.09;5118233;27;20027;-79
2023/06/29 05:36:44;;;;;;;19.38;13.68;;;;;;;14.77;78.84;95438.00;5106115;27;20031;-79
2023/06/29 05:39:10;;;;;;;19.52;13.63;;;;;;;14.57;77.73;95413.22;5108857;27;20038;-80
2023/06/29 05:41:38;;;;;;;28.55;16.08;;;;;;;14.96;79.21;95454.75;5108781;27;20043;-79
2023/06/29 05:44:04;;;;;;;25.08;14.18;;;;;;;14.33;77.59;95396.53;5103718;27;20103;-79
2023/06/29 05:46:30;;;;;;;22.73;14.48;;;;;;;14.56;78.02;95400.19;5107908;27;20564;-80
2023/06/29 05:48:55;;;;;;;21.27;14.57;;;;;;;14.81;77.41;95449.69;5089353;27;20099;-79
2023/06/29 05:51:20;;;;;;;21.05;13.80;;;;;;;14.56;76.01;95432.22;5087838;27;20088;-80
2023/06/29 05:53:46;;;;;;;18.38;12.65;;;;;;;14.72;75.80;95454.91;5103997;27;20662;-80
2023/06/29 05:56:11;;;;;;;18.02;12.40;;;;;;;14.62;77.62;95455.88;5105494;27;20058;-79
2023/06/29 05:58:37;;;;;;;17.38;13.73;;;;;;;14.49;77.54;95426.47;5109788;27;20115;-79
2023/06/29 06:01:02;;;;;;;24.98;13.65;;;;;;;14.04;76.82;95363.91;5087157;27;20035;-79
2023/06/29 06:03:28;;;;;;;20.77;13.82;;;;;;;14.73;77.29;95445.00;5070312;27;20031;-79
2023/06/29 06:05:54;;;;;;;19.73;14.10;;;;;;;14.60;77.17;95417.22;5104835;27;20031;-79
2023/06/29 06:08:19;;;;;;;18.38;13.30;;;;;;;14.52;75.34;95426.66;5092802;27;20034;-77
2023/06/29 06:10:45;;;;;;;22.58;13.80;;;;;;;14.51;76.72;95429.63;5104142;27;20020;-78
2023/06/29 06:13:12;;;;;;;16.38;12.80;;;;;;;14.42;76.27;95420.72;5096523;27;20047;-77
2023/06/29 06:15:38;;;;;;;19.23;13.18;;;;;;;14.61;76.79;95461.50;5111935;27;20141;-78
2023/06/29 06:18:03;;;;;;;28.15;13.55;;;;;;;14.35;75.64;95410.38;5117126;27;20482;-78
2023/06/29 06:20:29;;;;;;;22.27;14.35;;;;;;;14.62;76.73;95437.19;5117355;27;20032;-77
2023/06/29 06:22:54;;;;;;;27.48;14.38;;;;;;;14.59;76.56;95420.94;5103192;27;20035;-78
2023/06/29 06:25:20;;;;;;;23.77;15.77;;;;;;;14.77;76.92;95411.31;5100447;28;20386;-78
2023/06/29 06:27:45;;;;;;;16.98;12.48;;;;;;;14.97;76.38;95425.09;5109953;27;20565;-78
2023/06/29 06:30:11;;;;;;;17.77;14.00;;;;;;;14.88;75.55;95416.16;5111546;28;20063;-79
2023/06/29 06:32:40;;;;;;;21.98;13.43;;;;;;;15.20;75.35;95451.94;5111705;27;20618;-78
2023/06/29 06:35:07;;;;;;;20.88;14.20;;;;;;;15.11;75.61;95449.16;5110022;27;20027;-79
2023/06/29 06:37:34;;;;;;;19.40;13.32;;;;;;;15.12;74.55;95442.72;5117691;27;20035;-79
2023/06/29 06:40:03;;;;;;;23.85;13.65;;;;;;;14.88;74.79;95402.03;5121502;27;20035;-79
2023/06/29 06:42:28;;;;;;;26.50;12.80;;;;;;;15.03;74.39;95423.13;5104441;27;20031;-79
2023/06/29 06:45:00;;;;;;;21.88;13.90;;;;;;;15.23;74.94;95421.97;5100352;27;20091;-79
2023/06/29 06:47:26;;;;;;;21.42;14.18;;;;;;;15.17;75.36;95409.78;5102986;27;20031;-79
2023/06/29 06:49:51;;;;;;;26.77;12.65;;;;;;;15.29;73.20;95424.25;5115398;27;20092;-78
2023/06/29 06:52:16;;;;;;;23.85;14.13;;;;;;;15.21;74.23;95435.59;5117047;27;20125;-79
2023/06/29 06:54:45;;;;;;;18.45;12.52;;;;;;;15.40;74.62;95456.91;5108153;28;20027;-79
2023/06/29 06:57:10;;;;;;;17.85;12.52;;;;;;;15.38;74.38;95435.81;5100202;27;20309;-79
2023/06/29 06:59:36;;;;;;;17.92;12.23;;;;;;;15.48;72.85;95450.88;5113247;28;20031;-78
2023/06/29 07:02:01;;;;;;;22.52;11.25;;;;;;;15.10;71.77;95418.22;5117887;27;20066;-80
2023/06/29 07:04:26;;;;;;;22.48;12.25;;;;;;;15.20;71.77;95412.66;5096259;28;20034;-79
2023/06/29 07:06:52;;;;;;;21.33;12.13;;;;;;;15.15;71.37;95386.03;5115177;27;20035;-79
2023/06/29 07:09:17;;;;;;;27.25;14.00;;;;;;;15.35;72.68;95411.56;5106419;27;20070;-80
2023/06/29 07:11:43;;;;;;;23.42;11.80;;;;;;;15.27;71.96;95394.34;5102440;27;20714;-79
2023/06/29 07:14:08;;;;;;;17.42;11.95;;;;;;;15.73;71.31;95450.38;5102490;27;20047;-79
2023/06/29 07:16:33;;;;;;;16.83;11.60;;;;;;;15.59;71.04;95424.75;5115855;27;20037;-79
2023/06/29 07:19:11;;;;;;;13.77;10.27;;;;;;;15.83;69.97;95446.72;5094190;27;20046;-79
2023/06/29 07:21:37;;;;;;;18.73;10.95;;;;;;;15.72;71.26;95418.59;5106143;27;20091;-80
2023/06/29 07:24:02;;;;;;;18.63;10.65;;;;;;;15.80;70.50;95423.22;5097657;27;20027;-79
2023/06/29 07:26:28;;;;;;;14.88;10.30;;;;;;;15.61;69.54;95418.03;5119524;27;20027;-79
2023/06/29 07:28:53;;;;;;;17.00;9.27;;;;;;;15.29;68.27;95333.38;5113854;27;20030;-79
2023/06/29 07:31:26;;;;;;;14.43;9.63;;;;;;;16.03;68.91;95450.81;5113729;27;20011;-79
2023/06/29 07:33:55;;;;;;;19.77;8.75;;;;;;;15.83;68.46;95418.09;5110687;27;20023;-79
2023/06/29 07:36:22;;;;;;;21.20;9.85;;;;;;;16.22;68.59;95448.81;5099235;27;20114;-79
2023/06/29 07:38:48;;;;;;;12.30;8.90;;;;;;;16.26;66.82;95444.41;5119730;27;20033;-79
2023/06/29 07:41:15;;;;;;;16.83;9.25;;;;;;;16.20;66.31;95453.66;5090810;27;20042;-79
2023/06/29 07:43:45;;;;;;;16.73;9.65;;;;;;;15.79;67.91;95358.25;5098610;27;20031;-79
2023/06/29 07:46:11;;;;;;;11.85;6.93;;;;;;;16.30;65.46;95433.91;5114171;27;20075;-79
2023/06/29 07:48:37;;;;;;;13.15;8.02;;;;;;;16.18;65.84;95392.41;5117276;27;20031;-80
2023/06/29 07:51:03;;;;;;;10.63;7.75;;;;;;;15.98;66.19;95368.81;5119753;27;20023;-80
2023/06/29 07:53:29;;;;;;;19.75;6.55;;;;;;;16.06;64.57;95376.13;5117021;27;20556;-80
2023/06/29 07:55:55;;;;;;;10.73;6.65;;;;;;;16.38;64.35;95411.78;5108603;27;20023;-80
2023/06/29 07:58:20;;;;;;;8.50;6.40;;;;;;;16.26;64.16;95380.19;5100101;27;20023;-79
2023/06/29 08:00:46;;;;;;;7.07;4.82;;;;;;;16.54;61.91;95410.31;5108560;27;20038;-79
2023/06/29 08:03:11;;;;;;;9.45;5.90;;;;;;;16.77;62.31;95417.28;5112373;27;20031;-79
2023/06/29 08:05:37;;;;;;;8.95;5.85;;;;;;;16.74;62.52;95409.84;5101685;27;20039;-79
2023/06/29 08:08:02;;;;;;;9.40;5.30;;;;;;;16.86;62.30;95401.25;5100866;27;20170;-79
2023/06/29 08:10:28;;;;;;;11.15;5.75;;;;;;;17.03;61.71;95419.28;5119874;27;20063;-79
2023/06/29 08:12:53;;;;;;;13.90;6.47;;;;;;;16.82;62.57;95394.91;5112101;27;20861;-79
2023/06/29 08:15:18;;;;;;;12.73;5.70;;;;;;;17.02;62.40;95415.81;5092203;27;20123;-79
2023/06/29 08:17:45;;;;;;;10.90;5.38;;;;;;;17.19;61.52;95412.44;5081523;28;20081;-78
2023/06/29 08:20:12;;;;;;;6.50;4.32;;;;;;;17.49;60.61;95432.25;5089661;28;20035;-79
2023/06/29 08:22:40;;;;;;;9.55;5.80;;;;;;;17.04;62.73;95407.47;5084145;28;20094;-80
2023/06/29 08:25:06;;;;;;;8.45;5.60;;;;;;;17.16;62.37;95429.94;5086955;28;22094;-77
2023/06/29 08:27:31;;;;;;;8.32;4.88;;;;;;;16.70;61.39;95375.97;5080823;27;20427;-78
2023/06/29 08:29:57;;;;;;;8.15;5.40;;;;;;;17.06;62.66;95410.63;5092919;27;20100;-80
2023/06/29 08:32:22;;;;;;;12.23;5.72;;;;;;;16.98;62.44;95406.81;5079128;28;20030;-77
2023/06/29 08:34:48;;;;;;;8.25;4.38;;;;;;;17.15;61.10;95406.91;5088128;28;20027;-77
2023/06/29 08:37:13;;;;;;;7.80;5.20;;;;;;;17.18;60.38;95402.78;5107803;27;20031;-78
2023/06/29 08:39:39;;;;;;;7.75;5.00;;;;;;;17.18;61.45;95405.47;5085214;28;20023;-79
2023/06/29 08:42:05;;;;;;;8.90;5.65;;;;;;;17.24;61.85;95412.31;5107292;27;20439;-78
2023/06/29 08:44:30;;;;;;;6.78;4.40;;;;;;;16.98;61.00;95372.78;5082539;28;20031;-78
2023/06/29 08:47:00;;;;;;;7.95;5.20;;;;;;;17.44;63.17;95382.25;5089657;28;20549;-79
2023/06/29 08:49:27;;;;;;;10.10;5.70;;;;;;;17.48;61.22;95391.22;5099478;27;20031;-78
2023/06/29 08:51:57;;;;;;;9.88;5.85;;;;;;;17.63;60.79;95396.19;5085016;28;20645;-79
2023/06/29 08:54:26;;;;;;;10.82;5.55;;;;;;;17.50;62.39;95378.31;5076739;27;20472;-79
2023/06/29 08:56:51;;;;;;;7.75;5.38;;;;;;;17.72;60.67;95420.34;5099203;27;20032;-79
2023/06/29 08:59:18;;;;;;;7.82;5.18;;;;;;;17.52;60.12;95386.84;5057733;27;20398;-79
2023/06/29 09:01:44;;;;;;;9.23;5.00;;;;;;;17.62;60.84;95401.88;5060301;27;20130;-79
2023/06/29 09:04:11;;;;;;;8.98;4.38;;;;;;;17.65;59.33;95394.00;5082831;27;20943;-78
2023/06/29 09:06:37;;;;;;;6.82;5.43;;;;;;;17.92;59.35;95408.25;5078543;27;20146;-80
2023/06/29 09:09:03;;;;;;;8.95;5.55;;;;;;;17.78;60.04;95370.03;5094018;28;20034;-79
2023/06/29 09:11:35;;;;;;;10.75;5.45;;;;;;;17.84;59.58;95384.88;5103093;27;20051;-79
2023/06/29 09:14:04;;;;;;;;;;;;;;;17.93;59.83;95407.91;5083099;28;20271;-79
2023/06/29 09:16:30;;;;;;;10.63;4.95;;;;;;;17.40;59.28;95302.75;5075488;28;20412;-78
2023/06/29 09:18:57;;;;;;;11.38;5.80;;;;;;;17.93;59.83;95372.25;5079882;28;20034;-78
2023/06/29 09:21:23;;;;;;;8.63;5.03;;;;;;;18.17;58.90;95382.50;5104470;27;20031;-79
2023/06/29 09:23:50;;;;;;;8.45;4.65;;;;;;;18.06;58.22;95374.81;5118623;27;20035;-78
2023/06/29 09:26:19;;;;;;;6.30;4.03;;;;;;;17.88;58.47;95345.56;5102136;27;20474;-79
2023/06/29 09:28:45;;;;;;;7.43;4.38;;;;;;;17.94;57.94;95352.38;5111286;27;20035;-78
2023/06/29 09:31:14;;;;;;;7.15;4.57;;;;;;;18.04;58.13;95371.63;5096725;27;20091;-77
2023/06/29 09:33:40;;;;;;;7.65;4.10;;;;;;;18.29;56.66;95377.31;5091963;27;20598;-78
2023/06/29 09:36:07;;;;;;;14.23;4.55;;;;;;;18.41;56.39;95377.47;5095477;27;20041;-77
2023/06/29 09:38:34;;;;;;;8.90;4.57;;;;;;;18.57;56.99;95367.03;5113013;27;20031;-78
2023/06/29 09:41:02;;;;;;;8.63;4.40;;;;;;;18.42;56.79;95365.63;5113800;27;20436;-79
2023/06/29 09:43:29;;;;;;;7.85;4.10;;;;;;;18.51;56.17;95374.44;5101202;27;20039;-78
2023/06/29 09:46:08;;;;;;;10.98;4.07;;;;;;;18.94;55.71;95384.31;5098056;27;20031;-78
2023/06/29 09:48:44;;;;;;;5.68;3.83;;;;;;;19.44;53.84;95366.44;5093270;27;20042;-79
2023/06/29 09:51:09;;;;;;;7.00;3.40;;;;;;;20.17;51.49;95384.97;5110294;27;20027;-79
2023/06/29 09:53:36;;;;;;;16.25;3.90;;;;;;;21.13;50.84;95372.97;5099379;27;20042;-79
2023/06/29 09:56:02;;;;;;;7.22;3.20;;;;;;;22.24;47.06;95381.47;5109000;27;20028;-80
2023/06/29 09:58:29;;;;;;;4.72;3.17;;;;;;;22.95;45.87;95380.75;5111354;27;20028;-79
2023/06/29 10:00:58;;;;;;;6.90;3.63;;;;;;;22.32;44.93;95363.56;5099428;27;20261;-79
2023/06/29 10:03:26;;;;;;;8.45;3.47;;;;;;;22.27;45.11;95345.69;5112546;27;20134;-79
2023/06/29 10:05:57;;;;;;;6.72;3.60;;;;;;;22.56;44.68;95362.66;5092091;27;20239;-80
2023/06/29 10:08:27;;;;;;;8.77;3.28;;;;;;;23.37;43.43;95351.25;5090042;27;21312;-79
2023/06/29 10:11:00;;;;;;;3.80;2.80;;;;;;;23.81;42.33;95362.75;5102262;27;20027;-79
2023/06/29 10:13:27;;;;;;;6.75;2.75;;;;;;;23.41;42.63;95351.34;5105320;28;20050;-79
2023/06/29 10:15:53;;;;;;;9.55;3.60;;;;;;;24.11;42.34;95364.94;5119151;27;20130;-79
2023/06/29 10:18:28;;;;;;;9.75;2.88;;;;;;;23.35;41.32;95358.16;5132096;27;20366;-80
2023/06/29 10:20:54;;;;;;;4.57;2.85;;;;;;;24.13;39.87;95340.97;5102790;28;20490;-79
2023/06/29 10:23:23;;;;;;;5.63;2.70;;;;;;;24.31;39.52;95325.13;5117093;27;20038;-79
2023/06/29 10:25:50;;;;;;;4.68;2.92;;;;;;;24.68;39.92;95350.63;5119163;27;20035;-79
2023/06/29 10:28:17;;;;;;;5.53;2.65;;;;;;;24.76;39.68;95341.50;5117305;27;20452;-79
2023/06/29 10:30:48;;;;;;;4.85;3.13;;;;;;;23.87;42.20;95346.25;5092986;28;20035;-79
2023/06/29 10:33:20;;;;;;;4.03;2.70;;;;;;;23.99;41.54;95348.81;5128220;27;20398;-79
2023/06/29 10:36:01;;;;;;;3.85;2.60;;;;;;;24.31;39.46;95325.91;5117729;27;20091;-79
2023/06/29 10:38:34;;;;;;;5.28;2.90;;;;;;;24.65;40.38;95318.00;5135002;27;20066;-79
2023/06/29 10:41:00;;;;;;;6.22;2.88;;;;;;;24.71;38.91;95341.78;5122919;27;20436;-79
2023/06/29 10:43:27;;;;;;;3.42;2.33;;;;;;;24.03;39.91;95334.19;5122987;27;20043;-79
2023/06/29 10:45:52;;;;;;;7.10;2.72;;;;;;;23.95;40.13;95331.72;5129124;27;20544;-79
2023/06/29 10:48:19;;;;;;;4.43;2.85;;;;;;;24.08;39.02;95338.56;5126142;27;20028;-79
2023/06/29 10:50:46;;;;;;;10.23;3.38;;;;;;;24.08;40.47;95349.41;5123988;27;20571;-79
2023/06/29 10:53:14;;;;;;;6.88;3.28;;;;;;;24.53;39.97;95333.31;5141844;27;20031;-79
2023/06/29 10:55:52;;;;;;;4.22;2.80;;;;;;;24.18;38.65;95303.53;5124824;27;20062;-79
2023/06/29 10:58:22;;;;;;;8.88;2.58;;;;;;;24.53;38.59;95340.66;5122565;27;20050;-79
2023/06/29 11:00:49;;;;;;;4.32;3.08;;;;;;;24.44;38.54;95267.69;5115428;27;20118;-79
2023/06/29 11:03:15;;;;;;;5.20;3.22;;;;;;;24.89;38.31;95340.16;5116403;27;20034;-79
2023/06/29 11:05:41;;;;;;;5.78;3.08;;;;;;;25.13;37.50;95327.41;5126461;27;20027;-79
2023/06/29 11:08:07;;;;;;;10.75;3.33;;;;;;;25.02;37.04;95340.03;5128955;27;20065;-78
2023/06/29 11:10:34;;;;;;;3.85;2.63;;;;;;;25.23;36.19;95335.75;5106729;27;21218;-79
2023/06/29 11:12:59;;;;;;;5.13;2.65;;;;;;;25.57;36.21;95325.00;5122915;27;20027;-79
2023/06/29 11:15:26;;;;;;;6.82;3.05;;;;;;;25.35;36.10;95323.91;5108206;27;20438;-79
2023/06/29 11:17:53;;;;;;;5.50;2.70;;;;;;;24.51;37.05;95316.63;5115387;27;20031;-79
2023/06/29 11:20:27;;;;;;;6.22;3.05;;;;;;;24.34;37.62;95324.38;5129360;27;20623;-79
2023/06/29 11:22:52;;;;;;;4.30;3.00;;;;;;;23.99;37.77;95310.88;5105917;27;20111;-77